Time;durP1;ratioP1;P1;durP2;ratioP2;P2;SDS_P1;SDS_P2;PMS_P1;PMS_P2;Temp;Humidity;BMP_temperature;BMP_pressure;BME280_temperature;BME280_humidity;BME280_pressure;Samples;Min_cycle;Max_cycle;Signal;HPM_P1;HPM_P2
2022/09/14 00:00:15;;;;;;;2.20;1.17;;;28.30;76.00;;;;;;5020733;28;87117;-50
2022/09/14 00:02:45;;;;;;;3.13;0.90;;;27.70;74.20;;;;;;5022101;27;88930;-50
2022/09/14 00:05:13;;;;;;;1.87;1.00;;;27.70;76.40;;;;;;5036580;27;88541;-50
2022/09/14 00:07:41;;;;;;;2.93;0.90;;;27.70;75.20;;;;;;5049674;27;87077;-50
2022/09/14 00:13:49;;;;;;;1.57;1.23;;;;;;;;;;4088308;22;87899;-51
2022/09/14 00:16:19;;;;;;;6.17;1.20;;;27.70;78.60;;;;;;4998459;28;87563;-50
2022/09/14 00:18:50;;;;;;;1.33;0.93;;;27.60;77.40;;;;;;5012401;28;87067;-50
2022/09/14 00:21:18;;;;;;;0.90;0.80;;;27.50;78.00;;;;;;5021202;28;87073;-50
2022/09/14 00:23:46;;;;;;;3.13;1.00;;;27.50;77.60;;;;;;5030966;28;88957;-50
2022/09/14 00:26:15;;;;;;;4.07;1.53;;;27.50;76.10;;;;;;5039830;28;88577;-50
2022/09/14 00:28:44;;;;;;;2.00;1.10;;;27.50;75.80;;;;;;5039786;28;87898;-50
2022/09/14 00:31:12;;;;;;;1.73;1.10;;;27.60;72.20;;;;;;5040366;28;87037;-50
2022/09/14 00:33:42;;;;;;;2.57;1.30;;;27.60;81.80;;;;;;5040637;28;88062;-50
2022/09/14 00:36:13;;;;;;;0.80;0.80;;;27.60;78.70;;;;;;5040435;27;87908;-50
2022/09/14 00:38:41;;;;;;;3.23;1.43;;;27.60;76.50;;;;;;5024765;28;87095;-50
2022/09/14 00:41:11;;;;;;;2.57;2.03;;;27.50;74.00;;;;;;5033378;28;87129;-50
2022/09/14 00:44:01;;;;;;;3.50;1.50;;;27.60;77.10;;;;;;5032622;28;87735;-50
2022/09/14 00:46:30;;;;;;;2.47;1.50;;;27.50;69.70;;;;;;5021684;28;87738;-51
2022/09/14 00:49:00;;;;;;;7.13;1.90;;;27.60;78.90;;;;;;5023285;28;87079;-49
2022/09/14 00:51:28;;;;;;;1.40;1.30;;;27.50;72.10;;;;;;5023854;28;87007;-50
2022/09/14 00:53:56;;;;;;;3.10;1.30;;;27.50;71.40;;;;;;5022873;28;89261;-50
2022/09/14 00:56:24;;;;;;;2.23;1.20;;;27.60;77.30;;;;;;5022972;28;89492;-50
2022/09/14 00:58:52;;;;;;;1.97;1.40;;;27.50;71.80;;;;;;5023305;28;86962;-50
2022/09/14 01:01:20;;;;;;;2.37;1.30;;;27.40;80.10;;;;;;5023916;28;87854;-50
2022/09/14 01:03:48;;;;;;;3.03;1.00;;;27.60;81.50;;;;;;5023305;28;88119;-50
2022/09/14 01:06:21;;;;;;;1.80;1.27;;;27.40;71.90;;;;;;5023249;28;87745;-50
2022/09/14 01:09:03;;;;;;;1.97;1.33;;;27.50;75.20;;;;;;5023640;28;87004;-50
2022/09/14 01:11:40;;;;;;;1.87;1.37;;;;;;;;;;5025262;28;86347;-50
2022/09/14 01:14:10;;;;;;;1.37;1.27;;;27.40;77.20;;;;;;5040919;28;88123;-50
2022/09/14 01:16:42;;;;;;;3.03;1.40;;;27.50;71.90;;;;;;5043192;28;87493;-50
2022/09/14 01:19:15;;;;;;;2.00;1.30;;;27.40;67.00;;;;;;5030088;28;87976;-50
2022/09/14 01:21:45;;;;;;;2.20;1.40;;;27.40;63.60;;;;;;5036879;28;87018;-50
2022/09/14 01:24:18;;;;;;;3.90;1.30;;;27.40;50.80;;;;;;5043542;28;88281;-50
2022/09/14 01:27:08;;;;;;;2.47;1.47;;;27.40;51.40;;;;;;5043154;28;88427;-50
2022/09/14 01:29:40;;;;;;;4.43;1.90;;;27.40;50.70;;;;;;5041643;28;87832;-50
2022/09/14 01:32:10;;;;;;;2.53;1.43;;;27.40;50.70;;;;;;5043303;28;86978;-50
2022/09/14 01:34:45;;;;;;;2.00;1.80;;;27.40;50.70;;;;;;5043693;28;88087;-51
2022/09/14 01:37:17;;;;;;;3.00;1.40;;;27.40;50.70;;;;;;5037830;28;88434;-50
2022/09/14 01:39:47;;;;;;;1.77;1.53;;;27.40;50.70;;;;;;5022940;28;86995;-50
2022/09/14 01:42:15;;;;;;;2.47;1.47;;;27.40;50.70;;;;;;5022920;28;87096;-50
2022/09/14 01:44:46;;;;;;;1.30;1.20;;;27.40;50.80;;;;;;5022561;28;88834;-50
2022/09/14 01:47:19;;;;;;;2.57;1.33;;;27.30;50.80;;;;;;5022207;28;88912;-50
2022/09/14 01:49:50;;;;;;;2.13;1.50;;;27.30;50.80;;;;;;5022995;28;87658;-50
2022/09/14 01:52:21;;;;;;;2.43;1.20;;;27.30;50.80;;;;;;5023113;28;87049;-50
2022/09/14 01:54:50;;;;;;;1.63;1.20;;;27.40;50.90;;;;;;5022973;28;88998;-50
2022/09/14 01:57:20;;;;;;;3.30;1.60;;;27.30;50.80;;;;;;5038853;28;87651;-50
2022/09/14 01:59:50;;;;;;;2.13;1.00;;;27.40;50.90;;;;;;5043159;28;87099;-49
2022/09/14 02:02:20;;;;;;;8.93;1.50;;;27.30;50.90;;;;;;5043885;28;86233;-50
2022/09/14 02:04:57;;;;;;;1.53;1.30;;;27.40;50.90;;;;;;5042870;28;88020;-50
2022/09/14 02:07:26;;;;;;;1.23;0.83;;;27.30;51.00;;;;;;5042798;28;88862;-50
2022/09/14 02:09:54;;;;;;;2.10;0.93;;;27.30;50.90;;;;;;5024193;28;88091;-50
2022/09/14 02:12:22;;;;;;;1.60;1.37;;;27.30;50.90;;;;;;5022101;28;87074;-50
2022/09/14 02:14:52;;;;;;;2.00;1.50;;;27.30;50.90;;;;;;5022218;28;89230;-50
2022/09/14 02:17:20;;;;;;;1.63;1.40;;;27.30;50.90;;;;;;5021798;28;87365;-50
2022/09/14 02:19:50;;;;;;;5.83;2.00;;;27.30;50.90;;;;;;5022318;28;87054;-50
2022/09/14 02:22:18;;;;;;;3.53;2.17;;;27.30;50.90;;;;;;5022780;28;87785;-50
2022/09/14 02:24:46;;;;;;;4.07;1.70;;;27.30;50.90;;;;;;5022379;28;87656;-50
2022/09/14 02:27:14;;;;;;;3.17;1.97;;;27.20;50.80;;;;;;5023720;28;86805;-50
2022/09/14 02:29:42;;;;;;;2.93;1.80;;;27.20;50.90;;;;;;5022413;28;87048;-50
2022/09/14 02:32:15;;;;;;;6.30;2.50;;;27.20;51.60;;;;;;5022309;28;87084;-50
2022/09/14 02:34:50;;;;;;;5.50;2.37;;;27.20;50.90;;;;;;5021751;28;88884;-50
2022/09/14 02:37:19;;;;;;;2.97;2.13;;;27.20;51.00;;;;;;5022050;28;88600;-50
2022/09/14 02:39:51;;;;;;;4.80;2.57;;;27.10;50.90;;;;;;5022290;28;87070;-50
2022/09/14 02:42:25;;;;;;;6.43;2.47;;;27.10;50.90;;;;;;5022140;28;87085;-49
2022/09/14 02:45:02;;;;;;;3.83;2.77;;;27.10;51.00;;;;;;5022335;28;87127;-49
2022/09/14 02:47:34;;;;;;;2.40;1.77;;;27.10;51.00;;;;;;5021725;28;88694;-51
2022/09/14 02:50:06;;;;;;;2.40;1.90;;;27.10;51.00;;;;;;5022059;28;86956;-51
2022/09/14 02:52:37;;;;;;;3.27;2.03;;;27.10;51.00;;;;;;5040880;28;86444;-51
2022/09/14 02:55:07;;;;;;;4.63;2.60;;;27.10;51.00;;;;;;5041652;28;88126;-51
2022/09/14 02:57:59;;;;;;;2.73;1.53;;;27.10;51.00;;;;;;5042273;28;88607;-51
2022/09/14 03:00:27;;;;;;;1.87;1.50;;;27.10;51.00;;;;;;5040644;27;88002;-51
2022/09/14 03:02:57;;;;;;;3.00;1.83;;;27.10;51.10;;;;;;5041905;28;87185;-51
2022/09/14 03:05:25;;;;;;;2.37;1.43;;;27.10;51.20;;;;;;5041726;28;89030;-51
2022/09/14 03:07:52;;;;;;;2.73;2.07;;;27.20;51.20;;;;;;5042240;28;87616;-51
2022/09/14 03:10:20;;;;;;;2.60;1.60;;;27.10;51.10;;;;;;5040320;28;87011;-49
2022/09/14 03:12:48;;;;;;;2.57;1.40;;;27.10;51.10;;;;;;5020998;28;87094;-50
2022/09/14 03:15:16;;;;;;;1.13;0.93;;;27.10;51.10;;;;;;5021282;28;89226;-50
2022/09/14 03:17:47;;;;;;;2.13;1.23;;;27.00;51.10;;;;;;5021303;28;87562;-50
2022/09/14 03:20:18;;;;;;;1.27;0.90;;;27.00;51.10;;;;;;5021729;28;86980;-50
2022/09/14 03:22:46;;;;;;;0.60;0.60;;;27.00;51.10;;;;;;5042049;28;86975;-50
2022/09/14 03:25:14;;;;;;;1.17;1.00;;;27.00;51.10;;;;;;5041177;28;88828;-50
2022/09/14 03:27:42;;;;;;;1.30;0.90;;;26.90;51.00;;;;;;5041537;28;89846;-50
2022/09/14 03:30:11;;;;;;;1.43;0.90;;;27.00;51.10;;;;;;5039226;28;87155;-50
2022/09/14 03:32:39;;;;;;;3.57;1.00;;;26.90;51.00;;;;;;5021278;28;87054;-50
2022/09/14 03:35:08;;;;;;;0.90;0.57;;;26.90;51.00;;;;;;5021167;28;89032;-50
2022/09/14 03:37:38;;;;;;;2.93;1.23;;;26.90;51.00;;;;;;5021189;28;88722;-50
2022/09/14 03:40:07;;;;;;;1.63;1.30;;;26.90;51.00;;;;;;5021475;28;87104;-50
2022/09/14 03:42:35;;;;;;;4.20;0.90;;;26.90;50.90;;;;;;5021220;28;86410;-50
2022/09/14 03:45:03;;;;;;;1.30;0.73;;;26.90;50.90;;;;;;5021222;28;89203;-50
2022/09/14 03:47:33;;;;;;;2.13;1.47;;;26.90;50.90;;;;;;5020489;28;87060;-50
2022/09/14 03:50:01;;;;;;;1.37;1.07;;;26.90;50.90;;;;;;5023151;28;90156;-50
2022/09/14 03:52:29;;;;;;;0.70;0.70;;;26.90;50.90;;;;;;5041431;28;86907;-50
2022/09/14 03:54:58;;;;;;;1.87;0.97;;;26.90;50.80;;;;;;5041139;28;88920;-50
2022/09/14 03:57:26;;;;;;;1.90;0.87;;;26.80;50.80;;;;;;5041099;28;87384;-50
2022/09/14 03:59:54;;;;;;;1.43;1.10;;;26.80;50.80;;;;;;5041459;28;87006;-50
2022/09/14 04:02:22;;;;;;;0.87;0.70;;;26.80;50.80;;;;;;5041067;28;87015;-50
2022/09/14 04:04:51;;;;;;;1.40;0.67;;;26.80;50.90;;;;;;5041303;28;88210;-50
2022/09/14 04:07:19;;;;;;;0.73;0.60;;;26.80;50.90;;;;;;5041544;28;88618;-50
2022/09/14 04:09:46;;;;;;;1.20;0.80;;;26.80;51.50;;;;;;5037097;28;88079;-50
2022/09/14 04:12:16;;;;;;;0.93;0.87;;;26.80;50.80;;;;;;5020104;28;87169;-50
2022/09/14 04:14:44;;;;;;;1.53;0.80;;;26.80;50.80;;;;;;5020241;28;90048;-50
2022/09/14 04:17:12;;;;;;;0.90;0.80;;;26.80;50.80;;;;;;5020883;28;89588;-50
2022/09/14 04:19:40;;;;;;;1.63;1.00;;;26.80;50.80;;;;;;5020491;28;87130;-50
2022/09/14 04:22:08;;;;;;;1.03;0.57;;;26.80;50.90;;;;;;5020783;28;87044;-50
2022/09/14 04:24:36;;;;;;;1.30;0.80;;;26.80;50.90;;;;;;5020359;28;87947;-50
2022/09/14 04:27:04;;;;;;;2.10;0.60;;;26.90;50.90;;;;;;5020653;28;88873;-50
2022/09/14 04:29:34;;;;;;;1.30;0.87;;;26.90;50.90;;;;;;5022943;28;87142;-50
2022/09/14 04:32:02;;;;;;;2.33;1.13;;;26.90;50.90;;;;;;5041351;28;86263;-50
2022/09/14 04:34:30;;;;;;;1.53;0.80;;;26.80;50.90;;;;;;5040603;28;88337;-50
2022/09/14 04:36:58;;;;;;;0.67;0.53;;;26.90;51.00;;;;;;5040547;28;87716;-50
2022/09/14 04:39:26;;;;;;;0.93;0.90;;;26.80;50.90;;;;;;5040442;28;87992;-50
2022/09/14 04:41:54;;;;;;;1.17;0.70;;;26.90;51.00;;;;;;5040645;28;87140;-50
2022/09/14 04:44:22;;;;;;;0.97;0.63;;;27.00;51.10;;;;;;5040528;28;88913;-50
2022/09/14 04:46:51;;;;;;;1.03;0.70;;;26.90;51.70;;;;;;5020804;28;87782;-50
2022/09/14 04:49:20;;;;;;;0.77;0.67;;;26.90;51.70;;;;;;5019997;28;87031;-50
2022/09/14 04:51:48;;;;;;;0.80;0.60;;;26.90;51.00;;;;;;5020604;28;87046;-50
2022/09/14 04:54:17;;;;;;;0.43;0.43;;;26.90;51.10;;;;;;5020360;28;88104;-50
2022/09/14 04:56:45;;;;;;;0.43;0.40;;;26.90;51.10;;;;;;5020530;28;87947;-50
2022/09/14 04:59:14;;;;;;;2.67;0.70;;;26.90;51.10;;;;;;5020368;28;87087;-50
2022/09/14 05:01:42;;;;;;;0.80;0.60;;;26.90;51.10;;;;;;5021149;28;87658;-50
2022/09/14 05:04:12;;;;;;;0.67;0.67;;;26.90;51.20;;;;;;5019395;28;90072;-50
2022/09/14 05:06:41;;;;;;;0.80;0.67;;;26.90;51.20;;;;;;5020091;28;89041;-52
2022/09/14 05:09:13;;;;;;;0.83;0.70;;;26.90;51.10;;;;;;5020134;28;87125;-50
2022/09/14 05:11:42;;;;;;;0.70;0.70;;;26.90;51.20;;;;;;5019872;28;87091;-50
2022/09/14 05:14:11;;;;;;;0.50;0.40;;;26.90;51.20;;;;;;5019600;28;87016;-50
2022/09/14 05:16:40;;;;;;;0.87;0.70;;;26.90;51.20;;;;;;5036455;28;88768;-50
2022/09/14 05:19:10;;;;;;;0.40;0.40;;;26.90;51.30;;;;;;5039036;28;87109;-50
2022/09/14 05:21:39;;;;;;;1.17;0.80;;;26.80;51.20;;;;;;5020279;28;86203;-50
2022/09/14 05:24:13;;;;;;;0.70;0.70;;;26.80;51.20;;;;;;5021816;28;88018;-50
2022/09/14 05:26:41;;;;;;;2.50;1.00;;;26.90;51.30;;;;;;5022968;28;86978;-50
2022/09/14 05:29:11;;;;;;;0.83;0.40;;;26.90;51.40;;;;;;5029100;28;88018;-50
2022/09/14 05:31:39;;;;;;;1.53;0.40;;;26.80;51.30;;;;;;5043478;28;86926;-50
2022/09/14 05:34:09;;;;;;;0.40;0.40;;;26.90;51.40;;;;;;5043399;28;89095;-50
2022/09/14 05:36:37;;;;;;;1.77;0.43;;;26.90;51.50;;;;;;5041302;28;88766;-50
2022/09/14 05:39:06;;;;;;;0.30;0.30;;;26.90;51.40;;;;;;5043193;28;87068;-51
2022/09/14 05:41:34;;;;;;;1.43;0.60;;;26.90;51.40;;;;;;5042843;28;87116;-50
2022/09/14 05:44:03;;;;;;;0.53;0.53;;;26.90;51.50;;;;;;5043283;28;89319;-50
2022/09/14 05:46:31;;;;;;;1.60;0.57;;;26.90;51.50;;;;;;5024247;28;88754;-50
2022/09/14 05:48:59;;;;;;;0.70;0.40;;;26.90;51.50;;;;;;5023984;28;87034;-50
2022/09/14 05:51:27;;;;;;;0.50;0.50;;;26.90;51.50;;;;;;5023032;28;86989;-52
2022/09/14 05:53:56;;;;;;;1.70;0.27;;;26.90;51.60;;;;;;5022049;28;90110;-51
2022/09/14 05:56:27;;;;;;;0.40;0.40;;;26.90;51.60;;;;;;5022829;28;89909;-51
2022/09/14 05:58:55;;;;;;;0.63;0.63;;;26.90;51.60;;;;;;5022899;28;86972;-51
2022/09/14 06:01:24;;;;;;;0.47;0.40;;;26.90;51.60;;;;;;5033394;28;87060;-51
2022/09/14 06:03:53;;;;;;;0.20;0.20;;;26.90;51.60;;;;;;5042632;28;87899;-51
2022/09/14 06:06:22;;;;;;;0.47;0.33;;;26.90;51.60;;;;;;5042380;28;88724;-51
2022/09/14 06:08:51;;;;;;;0.50;0.40;;;26.90;51.70;;;;;;5042705;28;87099;-50
2022/09/14 06:11:20;;;;;;;0.30;0.30;;;26.90;51.70;;;;;;5043198;28;86301;-50
2022/09/14 06:13:50;;;;;;;3.27;0.80;;;26.80;51.70;;;;;;5042870;28;89152;-51
2022/09/14 06:16:19;;;;;;;1.23;0.47;;;26.80;51.60;;;;;;5042605;28;88542;-50
2022/09/14 06:18:48;;;;;;;0.40;0.40;;;26.80;51.70;;;;;;5038856;28;88237;-50
2022/09/14 06:21:18;;;;;;;0.40;0.37;;;26.80;51.70;;;;;;5022560;28;87053;-51
2022/09/14 06:23:46;;;;;;;0.40;0.40;;;26.80;51.80;;;;;;5022469;28;89009;-50
2022/09/14 06:26:14;;;;;;;0.30;0.20;;;26.80;51.80;;;;;;5022581;28;89014;-50
2022/09/14 06:28:42;;;;;;;1.50;0.37;;;26.80;52.40;;;;;;5022327;28;87034;-51
2022/09/14 06:31:13;;;;;;;0.30;0.30;;;26.70;51.70;;;;;;5025720;28;87104;-50
2022/09/14 06:33:43;;;;;;;2.93;0.37;;;26.80;51.80;;;;;;5023084;28;89183;-51
2022/09/14 06:36:13;;;;;;;0.40;0.40;;;26.70;51.70;;;;;;5010226;28;88781;-50
2022/09/14 06:38:41;;;;;;;0.30;0.30;;;26.70;51.70;;;;;;5022326;28;87038;-50
2022/09/14 06:41:12;;;;;;;0.30;0.30;;;26.70;51.70;;;;;;5030252;28;87036;-50
2022/09/14 06:43:41;;;;;;;0.40;0.20;;;26.70;51.70;;;;;;5042074;28;88680;-50
2022/09/14 06:46:11;;;;;;;0.40;0.40;;;26.70;51.70;;;;;;5023695;28;89812;-50
2022/09/14 06:48:42;;;;;;;0.67;0.30;;;26.60;51.60;;;;;;5026310;28;87068;-50
2022/09/14 06:51:15;;;;;;;2.37;0.50;;;26.60;52.20;;;;;;5002108;28;87088;-50
2022/09/14 06:53:44;;;;;;;0.20;0.20;;;26.60;51.70;;;;;;5030638;28;88923;-50
2022/09/14 06:56:12;;;;;;;1.50;0.27;;;26.70;51.70;;;;;;5021891;28;88440;-50
2022/09/14 06:58:40;;;;;;;0.30;0.30;;;26.70;51.80;;;;;;5022241;28;87025;-51
2022/09/14 07:01:10;;;;;;;0.50;0.30;;;26.70;51.70;;;;;;5022428;28;86521;-51
2022/09/14 07:03:39;;;;;;;0.40;0.40;;;26.70;51.70;;;;;;5021791;28;90671;-50
2022/09/14 07:06:09;;;;;;;0.30;0.30;;;26.70;51.70;;;;;;5021843;28;88745;-50
2022/09/14 07:08:38;;;;;;;2.97;0.53;;;26.70;51.70;;;;;;5021558;28;87978;-50
2022/09/14 07:11:07;;;;;;;1.13;0.40;;;26.70;51.70;;;;;;5021900;28;87034;-50
2022/09/14 07:13:35;;;;;;;0.57;0.23;;;26.60;51.70;;;;;;5021366;28;88687;-50
2022/09/14 07:16:04;;;;;;;0.23;0.20;;;26.60;51.70;;;;;;5021022;28;87780;-50
2022/09/14 07:18:32;;;;;;;0.20;0.20;;;26.60;51.70;;;;;;5021933;28;87073;-50
2022/09/14 07:21:05;;;;;;;3.40;0.50;;;26.60;51.70;;;;;;5022122;28;87030;-50
2022/09/14 07:23:35;;;;;;;0.13;0.13;;;26.60;51.70;;;;;;5021642;28;88874;-50
2022/09/14 07:26:07;;;;;;;0.50;0.33;;;26.60;51.70;;;;;;5021481;28;88820;-50
2022/09/14 07:28:35;;;;;;;0.97;0.40;;;26.60;51.70;;;;;;5021234;28;87033;-50
2022/09/14 07:31:03;;;;;;;2.33;0.30;;;26.60;51.60;;;;;;5021735;28;86883;-50
2022/09/14 07:33:31;;;;;;;0.33;0.33;;;26.40;51.60;;;;;;5020570;28;90327;-50
2022/09/14 07:36:07;;;;;;;0.20;0.20;;;26.50;51.70;;;;;;5020935;28;88149;-50
2022/09/14 07:38:35;;;;;;;2.80;0.43;;;26.40;51.70;;;;;;5021553;28;86889;-49
2022/09/14 07:41:19;;;;;;;0.37;0.33;;;26.50;51.70;;;;;;5021040;28;87032;-49
2022/09/14 07:43:49;;;;;;;0.43;0.33;;;26.50;51.70;;;;;;5021132;28;88024;-50
2022/09/14 07:46:17;;;;;;;2.00;0.50;;;26.50;51.70;;;;;;5020578;28;88844;-49
2022/09/14 07:48:45;;;;;;;0.60;0.40;;;26.50;52.40;;;;;;5021394;28;86968;-49
2022/09/14 07:51:14;;;;;;;0.93;0.20;;;26.50;51.60;;;;;;5021796;28;86273;-51
2022/09/14 07:53:43;;;;;;;0.63;0.20;;;26.50;51.70;;;;;;5020965;28;88842;-51
2022/09/14 07:56:11;;;;;;;0.20;0.20;;;26.50;51.70;;;;;;5020742;28;88779;-51
2022/09/14 07:58:40;;;;;;;0.20;0.20;;;26.50;51.60;;;;;;5020720;28;87930;-51
2022/09/14 08:01:10;;;;;;;0.53;0.43;;;26.50;51.60;;;;;;5020956;28;87044;-52
2022/09/14 08:03:39;;;;;;;3.07;0.40;;;26.50;51.60;;;;;;5021088;28;89194;-51
2022/09/14 08:06:09;;;;;;;0.47;0.30;;;26.50;51.60;;;;;;5020619;28;88983;-51
2022/09/14 08:08:40;;;;;;;0.83;0.50;;;26.50;51.60;;;;;;5020489;28;87182;-50
2022/09/14 08:11:11;;;;;;;2.57;0.70;;;26.50;51.60;;;;;;5021047;28;87177;-49
2022/09/14 08:13:41;;;;;;;0.30;0.30;;;26.50;51.60;;;;;;5020303;28;89224;-51
2022/09/14 08:16:09;;;;;;;0.27;0.23;;;26.50;51.70;;;;;;5021170;28;89026;-51
2022/09/14 08:18:38;;;;;;;3.50;0.40;;;26.50;51.70;;;;;;5021239;28;86949;-51
2022/09/14 08:21:07;;;;;;;0.27;0.20;;;26.50;51.70;;;;;;5020938;28;87029;-51
2022/09/14 08:23:36;;;;;;;0.30;0.23;;;26.50;51.60;;;;;;5020516;28;89517;-51
2022/09/14 08:26:06;;;;;;;0.20;0.20;;;26.50;51.60;;;;;;5020208;28;89864;-51
2022/09/14 08:28:35;;;;;;;0.47;0.40;;;26.50;51.70;;;;;;5021024;28;86985;-51
2022/09/14 08:31:04;;;;;;;0.30;0.30;;;26.40;51.60;;;;;;5020659;28;87283;-51
2022/09/14 08:33:40;;;;;;;0.83;0.47;;;26.40;51.60;;;;;;5020287;28;89164;-51
2022/09/14 08:36:11;;;;;;;0.50;0.50;;;26.40;51.70;;;;;;5020722;28;88776;-51
2022/09/14 08:38:39;;;;;;;0.67;0.50;;;26.40;51.70;;;;;;5020724;28;86982;-51
2022/09/14 08:41:19;;;;;;;0.20;0.20;;;26.40;51.70;;;;;;5020758;28;86386;-51
2022/09/14 08:43:47;;;;;;;0.20;0.20;;;26.40;51.70;;;;;;5020702;28;89143;-51
2022/09/14 08:46:20;;;;;;;0.60;0.27;;;26.40;51.70;;;;;;5020099;28;89058;-51
2022/09/14 08:48:48;;;;;;;0.87;0.20;;;26.40;51.70;;;;;;5020080;28;87857;-51
2022/09/14 08:51:17;;;;;;;0.20;0.20;;;26.40;51.70;;;;;;5002378;28;87150;-50
2022/09/14 08:53:45;;;;;;;0.20;0.20;;;26.40;51.70;;;;;;5020312;28;88939;-50
2022/09/14 08:56:16;;;;;;;1.40;0.20;;;26.40;51.70;;;;;;5020442;28;88959;-50
2022/09/14 08:58:59;;;;;;;2.37;0.30;;;26.40;51.70;;;;;;5021976;28;87052;-50
2022/09/14 09:01:32;;;;;;;0.30;0.30;;;26.50;51.70;;;;;;5023980;28;87152;-50
2022/09/14 09:04:30;;;;;;;0.43;0.30;;;26.50;51.80;;;;;;5023928;28;88915;-50
2022/09/14 09:07:01;;;;;;;0.50;0.50;;;26.40;51.70;;;;;;5021292;28;87820;-49
2022/09/14 09:09:32;;;;;;;0.40;0.30;;;26.40;51.80;;;;;;5023882;28;87150;-49
2022/09/14 09:12:02;;;;;;;0.60;0.40;;;26.50;51.80;;;;;;5022651;28;87032;-49
2022/09/14 09:14:33;;;;;;;0.53;0.50;;;26.50;51.90;;;;;;5022148;28;89877;-50
2022/09/14 09:17:03;;;;;;;0.20;0.20;;;26.40;51.80;;;;;;5021358;28;88721;-50
2022/09/14 09:19:32;;;;;;;0.40;0.40;;;26.40;52.00;;;;;;5023707;28;87027;-49
2022/09/14 09:22:02;;;;;;;0.37;0.37;;;26.40;52.20;;;;;;5023386;28;87062;-49
2022/09/14 09:24:31;;;;;;;0.30;0.30;;;26.40;63.80;;;;;;5005297;28;88895;-50
2022/09/14 09:27:11;;;;;;;0.30;0.20;;;26.40;57.90;;;;;;5022953;28;88881;-49
2022/09/14 09:29:40;;;;;;;1.90;0.27;;;26.40;56.70;;;;;;5023715;28;86907;-49
2022/09/14 09:32:12;;;;;;;0.33;0.30;;;26.40;56.60;;;;;;5023438;28;86294;-49
2022/09/14 09:34:40;;;;;;;1.90;0.30;;;26.40;56.60;;;;;;5022927;28;87734;-50
2022/09/14 09:37:13;;;;;;;0.27;0.27;;;26.40;56.60;;;;;;5022820;28;87795;-50
2022/09/14 09:39:42;;;;;;;3.80;0.30;;;26.40;56.70;;;;;;5022589;28;88014;-49
2022/09/14 09:42:16;;;;;;;1.73;0.30;;;26.40;56.80;;;;;;5022785;28;87186;-50
2022/09/14 09:44:58;;;;;;;1.80;0.30;;;26.40;56.80;;;;;;5022872;28;87571;-49
2022/09/14 09:47:32;;;;;;;0.40;0.40;;;26.40;57.00;;;;;;5022949;28;88910;-49
2022/09/14 09:50:01;;;;;;;0.20;0.20;;;26.40;57.00;;;;;;5023355;28;87690;-49
2022/09/14 09:52:30;;;;;;;0.27;0.27;;;26.40;57.10;;;;;;5022761;28;87529;-49
2022/09/14 09:55:00;;;;;;;0.83;0.30;;;26.40;57.30;;;;;;5022423;28;89308;-52
2022/09/14 09:57:30;;;;;;;2.00;0.57;;;26.40;57.40;;;;;;5023365;28;89017;-51
2022/09/14 10:00:10;;;;;;;0.30;0.30;;;26.40;57.60;;;;;;5023014;28;86980;-51
2022/09/14 10:02:38;;;;;;;0.93;0.63;;;26.40;59.00;;;;;;5023106;28;87137;-51
2022/09/14 10:05:14;;;;;;;1.17;0.30;;;26.40;59.50;;;;;;5022263;28;89981;-49
2022/09/14 10:07:49;;;;;;;0.60;0.50;;;26.30;60.60;;;;;;5022991;28;89632;-50
2022/09/14 10:10:19;;;;;;;1.47;0.37;;;26.30;60.20;;;;;;5022501;28;87541;-51
2022/09/14 10:12:50;;;;;;;0.37;0.37;;;26.30;60.80;;;;;;5022026;28;86996;-51
2022/09/14 10:15:20;;;;;;;0.20;0.20;;;26.30;61.30;;;;;;5022559;28;87872;-52
2022/09/14 10:18:06;;;;;;;0.57;0.40;;;26.30;61.60;;;;;;5022608;28;88891;-51
2022/09/14 10:20:34;;;;;;;2.00;0.70;;;26.30;62.30;;;;;;5023209;28;87591;-51
2022/09/14 10:23:22;;;;;;;0.23;0.23;;;26.40;63.20;;;;;;5022757;28;86350;-51
2022/09/14 10:25:51;;;;;;;0.80;0.40;;;26.30;63.90;;;;;;5022474;28;88914;-51
2022/09/14 10:28:23;;;;;;;0.20;0.20;;;26.70;65.40;;;;;;5022206;28;88445;-50
2022/09/14 10:30:54;;;;;;;0.10;0.10;;;26.40;67.30;;;;;;5021865;28;87998;-51
2022/09/14 10:33:23;;;;;;;0.40;0.30;;;26.40;73.50;;;;;;5021959;28;87116;-51
2022/09/14 10:35:54;;;;;;;1.33;0.57;;;26.40;66.80;;;;;;5021914;28;89796;-50
2022/09/14 10:38:31;;;;;;;0.50;0.50;;;26.40;67.60;;;;;;5022003;28;88802;-50
2022/09/14 10:41:15;;;;;;;0.47;0.40;;;26.40;66.60;;;;;;5022330;28;87052;-50
2022/09/14 10:44:18;;;;;;;0.20;0.20;;;26.40;66.50;;;;;;5022160;28;86989;-50
2022/09/14 10:46:51;;;;;;;1.13;0.30;;;26.40;66.20;;;;;;4990349;28;89292;-50
2022/09/14 10:49:30;;;;;;;1.43;0.47;;;26.40;66.70;;;;;;5022537;28;89184;-50
2022/09/14 10:52:02;;;;;;;0.30;0.30;;;26.30;67.10;;;;;;5022331;28;87077;-50
2022/09/14 10:54:47;;;;;;;0.30;0.20;;;26.40;67.20;;;;;;5022372;28;87083;-50
2022/09/14 10:57:19;;;;;;;0.27;0.27;;;26.40;71.90;;;;;;5021547;28;90213;-49
2022/09/14 10:59:51;;;;;;;0.10;0.10;;;26.40;64.00;;;;;;5021008;28;89902;-50
2022/09/14 11:02:54;;;;;;;0.67;0.30;;;26.40;65.30;;;;;;5021691;28;86998;-49
2022/09/14 11:05:23;;;;;;;0.47;0.47;;;26.50;64.70;;;;;;5021353;28;87121;-50
2022/09/14 11:07:57;;;;;;;1.13;0.43;;;26.50;64.70;;;;;;5021770;28;87092;-50
2022/09/14 11:10:30;;;;;;;0.63;0.33;;;26.40;65.30;;;;;;5021851;28;88949;-49
2022/09/14 11:13:12;;;;;;;0.40;0.40;;;26.40;66.70;;;;;;5021015;28;87045;-50
2022/09/14 11:15:44;;;;;;;0.20;0.20;;;26.50;66.80;;;;;;5021628;28;86418;-49
2022/09/14 11:18:20;;;;;;;0.87;0.47;;;26.50;67.90;;;;;;5021373;28;87853;-51
2022/09/14 11:20:54;;;;;;;0.73;0.40;;;26.50;67.60;;;;;;5020678;28;87646;-50
2022/09/14 11:23:28;;;;;;;0.63;0.50;;;26.60;66.00;;;;;;5020879;28;87987;-49
2022/09/14 11:25:57;;;;;;;0.30;0.30;;;26.50;68.60;;;;;;5020864;28;87065;-51
2022/09/14 11:28:27;;;;;;;0.30;0.30;;;26.50;72.00;;;;;;5020954;28;89008;-50
2022/09/14 11:30:56;;;;;;;0.50;0.50;;;26.60;75.90;;;;;;5020863;28;89054;-51
2022/09/14 11:33:27;;;;;;;2.53;0.33;;;26.60;70.10;;;;;;5021411;28;87086;-51
2022/09/14 11:35:59;;;;;;;1.30;0.50;;;26.50;65.50;;;;;;5020711;28;87080;-51
2022/09/14 11:38:28;;;;;;;0.30;0.20;;;26.50;63.60;;;;;;5020681;28;88962;-51
2022/09/14 11:40:59;;;;;;;2.13;0.40;;;26.50;63.70;;;;;;5021022;28;88769;-52
2022/09/14 11:43:29;;;;;;;0.50;0.50;;;26.50;62.20;;;;;;5021190;28;87163;-50
2022/09/14 11:46:02;;;;;;;0.43;0.40;;;26.50;62.10;;;;;;5021173;28;87235;-51
2022/09/14 11:48:34;;;;;;;1.47;0.40;;;26.50;62.00;;;;;;5020718;28;90108;-50
2022/09/14 11:51:12;;;;;;;0.40;0.40;;;26.50;62.20;;;;;;5021068;28;89740;-50
2022/09/14 11:53:41;;;;;;;0.30;0.30;;;26.50;63.00;;;;;;5021160;28;87189;-50
2022/09/14 11:56:25;;;;;;;0.77;0.30;;;26.60;62.30;;;;;;5020806;28;87057;-50
2022/09/14 11:58:54;;;;;;;0.77;0.47;;;26.50;62.10;;;;;;5020926;28;88974;-50
2022/09/14 12:01:31;;;;;;;0.80;0.80;;;26.50;63.00;;;;;;5020737;28;88611;-51
2022/09/14 12:04:21;;;;;;;0.60;0.40;;;26.50;62.20;;;;;;5020404;28;86938;-51
2022/09/14 12:06:55;;;;;;;0.87;0.30;;;26.60;62.40;;;;;;5015421;28;86317;-50
2022/09/14 12:09:53;;;;;;;0.20;0.20;;;26.60;63.40;;;;;;5020301;28;89062;-51
2022/09/14 12:12:33;;;;;;;0.77;0.50;;;26.60;62.60;;;;;;5020101;28;87856;-51
2022/09/14 12:15:01;;;;;;;3.40;0.67;;;26.60;62.70;;;;;;5019542;28;88045;-50
2022/09/14 12:17:32;;;;;;;1.33;0.37;;;26.60;63.00;;;;;;5020107;28;87096;-51
2022/09/14 12:20:39;;;;;;;0.30;0.30;;;26.60;63.20;;;;;;5020831;28;87929;-49
2022/09/14 12:23:16;;;;;;;0.43;0.43;;;26.60;63.80;;;;;;4975774;28;88900;-50
2022/09/14 12:25:54;;;;;;;0.30;0.30;;;26.60;64.30;;;;;;5020420;28;87029;-50
2022/09/14 12:28:37;;;;;;;0.27;0.20;;;26.60;64.90;;;;;;5020569;28;87141;-50
2022/09/14 12:31:30;;;;;;;0.70;0.30;;;26.60;66.80;;;;;;5020675;28;88179;-49
2022/09/14 12:34:20;;;;;;;0.57;0.57;;;26.70;76.00;;;;;;5020546;28;88024;-50
2022/09/14 12:37:01;;;;;;;2.83;0.73;;;26.60;67.30;;;;;;5014971;28;87173;-50
2022/09/14 12:39:30;;;;;;;1.63;0.40;;;26.60;73.20;;;;;;5020575;28;86984;-50
2022/09/14 12:42:03;;;;;;;1.17;0.30;;;26.60;70.20;;;;;;5019659;28;90180;-49
2022/09/14 12:44:38;;;;;;;1.67;0.50;;;26.60;65.60;;;;;;5020012;28;89793;-50
2022/09/14 12:47:52;;;;;;;1.77;0.57;;;26.60;66.80;;;;;;5020430;28;87159;-51
2022/09/14 12:50:21;;;;;;;0.53;0.30;;;26.60;72.00;;;;;;4973515;28;87326;-52
2022/09/14 12:53:09;;;;;;;0.30;0.30;;;26.60;63.50;;;;;;5019221;28;87033;-50
2022/09/14 12:55:47;;;;;;;0.87;0.50;;;26.60;62.90;;;;;;5020293;28;88668;-49
2022/09/14 12:58:22;;;;;;;1.83;0.40;;;26.60;62.70;;;;;;5020292;28;87235;-49
2022/09/14 13:00:55;;;;;;;0.20;0.20;;;26.60;62.60;;;;;;5020756;28;86337;-51
2022/09/14 13:03:38;;;;;;;0.90;0.30;;;26.60;62.60;;;;;;5020021;28;89150;-51
2022/09/14 13:06:10;;;;;;;0.60;0.60;;;26.60;62.80;;;;;;5020144;28;87765;-51
2022/09/14 13:08:41;;;;;;;0.67;0.57;;;26.60;62.80;;;;;;5019521;28;88037;-51
2022/09/14 13:11:09;;;;;;;0.40;0.40;;;26.60;62.60;;;;;;5020150;28;87084;-50
2022/09/14 13:13:37;;;;;;;2.57;0.57;;;26.60;62.80;;;;;;5019534;28;89089;-50